Time;durP1;ratioP1;P1;durP2;ratioP2;P2;SDS_P1;SDS_P2;PMS_P1;PMS_P2;Temp;Humidity;BMP_temperature;BMP_pressure;BME280_temperature;BME280_humidity;BME280_pressure;Samples;Min_cycle;Max_cycle;Signal;HPM_P1;HPM_P2
2022/05/02 00:02:23;;;;;;;13.67;9.57;;;12.00;75.60;;;;;;4976856;28;20204;-71
2022/05/02 00:04:50;;;;;;;17.40;9.80;;;12.00;75.80;;;;;;4976397;28;20320;-73
2022/05/02 00:07:17;;;;;;;16.40;10.33;;;12.00;76.10;;;;;;4976313;28;20240;-72
2022/05/02 00:09:44;;;;;;;13.60;10.07;;;12.00;76.40;;;;;;4976320;28;20209;-72
2022/05/02 00:12:13;;;;;;;15.43;8.63;;;12.00;76.80;;;;;;4975770;28;20201;-71
2022/05/02 00:14:40;;;;;;;14.07;9.83;;;11.90;77.50;;;;;;4976304;28;20284;-72
2022/05/02 00:17:06;;;;;;;15.63;10.03;;;11.90;77.30;;;;;;4976403;28;20255;-73
2022/05/02 00:19:33;;;;;;;16.73;10.20;;;11.90;77.70;;;;;;4976202;28;20635;-72
2022/05/02 00:22:00;;;;;;;12.93;9.40;;;11.90;78.00;;;;;;4976112;28;20235;-71
2022/05/02 00:24:27;;;;;;;14.30;9.57;;;11.90;78.20;;;;;;4976150;28;20319;-71
2022/05/02 00:26:54;;;;;;;14.50;9.63;;;11.80;78.40;;;;;;4975948;28;20287;-71
2022/05/02 00:29:22;;;;;;;13.23;9.40;;;11.80;78.70;;;;;;4976074;28;20204;-72
2022/05/02 00:31:49;;;;;;;14.57;9.30;;;11.80;79.20;;;;;;4976134;28;20204;-72
2022/05/02 00:34:16;;;;;;;16.37;8.83;;;11.70;79.20;;;;;;4976033;28;20201;-72
2022/05/02 00:36:43;;;;;;;14.10;9.03;;;11.80;79.80;;;;;;4975406;28;20215;-71
2022/05/02 00:39:10;;;;;;;11.20;8.03;;;11.70;80.10;;;;;;4975664;28;20201;-72
2022/05/02 00:41:37;;;;;;;15.00;9.03;;;11.70;80.60;;;;;;4975756;28;20244;-72
2022/05/02 00:44:05;;;;;;;14.97;8.93;;;11.60;81.00;;;;;;4976233;28;20223;-72
2022/05/02 00:46:34;;;;;;;12.90;8.30;;;11.50;81.40;;;;;;4975441;28;20272;-72
2022/05/02 00:49:01;;;;;;;12.17;8.47;;;11.50;81.90;;;;;;4975964;28;20205;-72
2022/05/02 00:51:28;;;;;;;13.43;8.77;;;11.50;82.40;;;;;;4975583;28;20255;-71
2022/05/02 00:53:55;;;;;;;12.27;8.57;;;11.40;83.00;;;;;;4974921;28;20200;-71
2022/05/02 00:56:21;;;;;;;14.43;8.77;;;11.40;83.50;;;;;;4975718;28;20631;-72
2022/05/02 00:58:50;;;;;;;11.07;8.23;;;11.40;84.20;;;;;;4975244;28;20259;-71
2022/05/02 01:01:17;;;;;;;11.83;8.90;;;11.30;84.70;;;;;;4975999;28;20551;-68
2022/05/02 01:03:46;;;;;;;13.93;8.60;;;11.40;85.40;;;;;;4975257;28;20247;-68
2022/05/02 01:08:57;;;;;;;12.60;7.97;;;11.20;86.20;;;;;;4975652;28;20208;-68
2022/05/02 01:11:24;;;;;;;13.17;8.30;;;11.20;87.00;;;;;;4975752;28;20204;-69
2022/05/02 01:13:51;;;;;;;11.57;8.00;;;11.20;87.80;;;;;;4975526;28;20296;-68
2022/05/02 01:16:20;;;;;;;13.10;8.13;;;11.20;88.40;;;;;;4974260;28;20702;-68
2022/05/02 01:18:50;;;;;;;13.50;8.90;;;11.10;88.90;;;;;;4975769;28;20250;-69
2022/05/02 01:21:19;;;;;;;9.83;7.50;;;11.10;89.60;;;;;;4975654;28;20332;-69
2022/05/02 01:23:48;;;;;;;13.60;7.87;;;11.00;90.10;;;;;;4975668;28;20207;-69
2022/05/02 01:26:16;;;;;;;12.77;8.43;;;11.00;90.50;;;;;;4975106;28;20319;-70
2022/05/02 01:28:44;;;;;;;11.07;8.30;;;11.00;90.90;;;;;;4976268;28;20754;-69
2022/05/02 01:31:11;;;;;;;11.27;7.80;;;11.00;91.20;;;;;;4974969;28;20244;-69
2022/05/02 01:33:38;;;;;;;10.87;8.30;;;11.00;91.50;;;;;;4975589;28;20255;-69
2022/05/02 01:36:06;;;;;;;14.67;8.80;;;10.90;91.90;;;;;;4975377;28;20705;-69
2022/05/02 01:38:35;;;;;;;12.10;8.13;;;10.90;92.30;;;;;;4975396;28;20197;-69
2022/05/02 01:41:03;;;;;;;11.73;8.40;;;10.90;92.50;;;;;;4966426;28;20599;-69
2022/05/02 01:43:31;;;;;;;12.07;8.33;;;10.90;92.90;;;;;;4968057;28;20659;-69
2022/05/02 01:45:58;;;;;;;12.40;8.63;;;10.90;93.30;;;;;;4974950;28;20728;-67
2022/05/02 01:48:25;;;;;;;14.83;8.07;;;10.90;93.60;;;;;;4975179;28;20678;-68
2022/05/02 01:50:52;;;;;;;16.20;8.50;;;10.90;93.90;;;;;;4974997;28;20236;-69
2022/05/02 01:53:19;;;;;;;14.17;9.20;;;10.90;94.20;;;;;;4975481;28;20219;-70
2022/05/02 01:55:48;;;;;;;12.87;8.27;;;10.90;94.80;;;;;;4975351;28;20304;-70
2022/05/02 01:58:14;;;;;;;10.73;8.30;;;10.90;94.70;;;;;;4975097;28;20231;-69
2022/05/02 02:00:41;;;;;;;12.40;8.30;;;10.90;95.00;;;;;;4975061;28;20291;-69
2022/05/02 02:03:09;;;;;;;13.20;8.57;;;10.90;95.30;;;;;;4975833;28;20276;-69
2022/05/02 02:05:51;;;;;;;13.17;8.23;;;10.90;95.60;;;;;;4975134;28;20226;-69
2022/05/02 02:08:19;;;;;;;13.33;8.80;;;10.90;95.90;;;;;;4975369;28;20193;-69
2022/05/02 02:10:48;;;;;;;11.87;8.37;;;11.00;96.10;;;;;;4967932;28;20206;-69
2022/05/02 02:13:16;;;;;;;12.77;9.17;;;11.00;96.30;;;;;;4955205;29;20241;-69
2022/05/02 02:15:44;;;;;;;12.03;8.20;;;11.00;96.60;;;;;;4955710;29;20219;-68
2022/05/02 02:18:11;;;;;;;14.73;8.47;;;11.00;96.80;;;;;;4957869;28;20232;-69
2022/05/02 02:20:38;;;;;;;13.33;8.80;;;10.90;97.00;;;;;;4959280;28;20248;-70
2022/05/02 02:23:05;;;;;;;12.10;8.37;;;10.90;97.20;;;;;;4959210;29;20209;-70
2022/05/02 02:25:33;;;;;;;17.07;9.27;;;10.90;97.50;;;;;;4959776;29;20225;-69
2022/05/02 02:28:01;;;;;;;12.53;8.37;;;10.80;97.60;;;;;;4959361;29;20227;-69
2022/05/02 02:30:29;;;;;;;12.07;8.47;;;10.80;97.90;;;;;;4959102;29;20268;-69
2022/05/02 02:32:56;;;;;;;10.73;7.87;;;10.80;98.10;;;;;;4959459;29;20212;-69
2022/05/02 02:35:23;;;;;;;11.50;8.20;;;10.80;98.30;;;;;;4959068;29;20240;-69
2022/05/02 02:37:50;;;;;;;13.30;8.30;;;10.70;98.50;;;;;;4958915;29;20288;-68
2022/05/02 02:40:17;;;;;;;20.97;8.97;;;10.70;98.80;;;;;;4961900;28;20573;-68
2022/05/02 02:42:45;;;;;;;13.03;8.77;;;10.70;99.10;;;;;;4978053;28;20239;-70
2022/05/02 02:45:13;;;;;;;13.73;8.07;;;10.70;99.30;;;;;;4977294;28;20260;-68
2022/05/02 02:47:41;;;;;;;13.83;8.63;;;10.60;99.70;;;;;;4977900;28;20236;-70
2022/05/02 02:50:08;;;;;;;13.47;7.67;;;10.60;99.90;;;;;;4977524;28;20208;-68
2022/05/02 02:52:35;;;;;;;12.03;8.17;;;10.60;99.90;;;;;;4977906;28;20211;-69
2022/05/02 02:55:02;;;;;;;12.03;7.70;;;10.60;99.90;;;;;;4977996;28;20638;-69
2022/05/02 02:57:29;;;;;;;10.37;7.60;;;10.60;99.90;;;;;;4978561;28;20204;-69
2022/05/02 02:59:56;;;;;;;13.53;7.77;;;10.50;99.90;;;;;;4978565;28;20215;-69
2022/05/02 03:02:24;;;;;;;14.33;7.70;;;10.50;99.90;;;;;;4978497;28;20291;-69
2022/05/02 03:07:36;;;;;;;11.50;8.27;;;10.50;99.90;;;;;;4978307;28;20272;-68
2022/05/02 03:10:04;;;;;;;10.10;8.00;;;10.50;99.90;;;;;;4976797;28;20621;-69
2022/05/02 03:12:31;;;;;;;10.47;7.43;;;10.50;99.90;;;;;;4958914;29;20215;-69
2022/05/02 03:14:58;;;;;;;9.83;7.50;;;10.50;99.90;;;;;;4958597;29;20209;-69
2022/05/02 03:17:26;;;;;;;9.70;7.63;;;10.40;99.90;;;;;;4957854;29;20326;-69
2022/05/02 03:19:53;;;;;;;11.37;7.60;;;10.40;99.90;;;;;;4958208;29;20213;-69
2022/05/02 03:22:20;;;;;;;9.73;7.73;;;10.40;99.90;;;;;;4958305;29;20311;-69
2022/05/02 03:24:46;;;;;;;11.10;7.43;;;10.30;99.90;;;;;;4958552;29;20244;-69
2022/05/02 03:27:13;;;;;;;9.90;8.37;;;10.40;99.90;;;;;;4958854;29;20233;-69
2022/05/02 03:29:40;;;;;;;12.00;7.60;;;10.30;99.90;;;;;;4957435;28;20197;-69
2022/05/02 03:32:07;;;;;;;10.30;7.37;;;10.40;99.90;;;;;;4957843;29;20288;-69
2022/05/02 03:34:36;;;;;;;15.17;8.23;;;10.30;99.90;;;;;;4958735;29;20209;-67
2022/05/02 03:37:03;;;;;;;11.43;7.67;;;10.30;99.90;;;;;;4957826;29;20225;-68
2022/05/02 03:39:30;;;;;;;13.10;7.83;;;10.30;99.90;;;;;;4957223;29;20644;-67
2022/05/02 03:41:57;;;;;;;10.70;7.90;;;10.30;99.90;;;;;;4973414;28;20241;-67
2022/05/02 03:44:24;;;;;;;11.57;8.03;;;10.40;99.90;;;;;;4977190;28;20271;-68
2022/05/02 03:46:51;;;;;;;10.50;8.03;;;10.30;99.90;;;;;;4976884;28;20229;-70
2022/05/02 03:49:18;;;;;;;12.80;8.27;;;10.30;99.90;;;;;;4978008;28;20232;-69
2022/05/02 03:51:46;;;;;;;11.20;7.80;;;10.30;99.90;;;;;;4977116;28;20700;-68
2022/05/02 03:54:13;;;;;;;14.90;8.03;;;10.30;99.90;;;;;;4977209;28;20214;-69
2022/05/02 03:56:40;;;;;;;10.27;7.40;;;10.40;99.90;;;;;;4976924;28;20209;-69
2022/05/02 03:59:07;;;;;;;9.50;7.57;;;10.40;99.90;;;;;;4976919;28;20292;-69
2022/05/02 04:01:36;;;;;;;10.93;8.23;;;10.50;99.90;;;;;;4976838;28;20231;-69
2022/05/02 04:04:03;;;;;;;10.43;7.40;;;10.50;99.90;;;;;;4976716;28;20319;-69
2022/05/02 04:06:30;;;;;;;12.30;7.77;;;10.60;99.90;;;;;;4976360;28;20287;-69
2022/05/02 04:08:58;;;;;;;10.23;7.03;;;10.70;99.90;;;;;;4977052;28;20232;-68
2022/05/02 04:11:25;;;;;;;19.83;8.03;;;10.70;99.90;;;;;;4961948;28;20225;-69
2022/05/02 04:13:52;;;;;;;9.43;7.13;;;10.80;99.90;;;;;;4957817;29;20217;-69
2022/05/02 04:16:19;;;;;;;10.97;8.03;;;10.80;99.90;;;;;;4957386;29;20617;-69
2022/05/02 04:18:46;;;;;;;12.73;7.60;;;10.90;99.90;;;;;;4958073;28;20244;-68
2022/05/02 04:21:14;;;;;;;11.93;8.23;;;10.90;99.90;;;;;;4975845;28;20220;-69
2022/05/02 04:23:41;;;;;;;11.07;7.57;;;10.90;99.90;;;;;;4976677;28;20666;-69
2022/05/02 04:26:09;;;;;;;10.53;7.17;;;11.00;99.90;;;;;;4976780;28;20267;-70
2022/05/02 04:28:36;;;;;;;11.07;7.10;;;11.10;99.90;;;;;;4976657;28;20633;-69
2022/05/02 04:31:03;;;;;;;9.50;7.30;;;11.10;99.90;;;;;;4976465;28;20213;-70
2022/05/02 04:33:30;;;;;;;9.07;7.17;;;11.10;99.90;;;;;;4976397;28;20287;-68
2022/05/02 04:35:56;;;;;;;9.83;7.27;;;11.20;99.90;;;;;;4976829;28;20204;-70
2022/05/02 04:38:24;;;;;;;8.27;6.40;;;11.20;99.90;;;;;;4976070;28;20210;-70
2022/05/02 04:40:50;;;;;;;9.63;7.27;;;11.30;99.90;;;;;;4976082;28;20299;-70
2022/05/02 04:43:19;;;;;;;8.37;6.67;;;11.30;99.90;;;;;;4976194;28;20191;-69
2022/05/02 04:45:45;;;;;;;9.63;7.23;;;11.30;99.90;;;;;;4975222;28;20295;-69
2022/05/02 04:48:12;;;;;;;13.33;7.60;;;11.30;99.90;;;;;;4976131;28;20205;-69
2022/05/02 04:50:39;;;;;;;9.20;6.90;;;11.30;99.90;;;;;;4960555;28;20216;-69
2022/05/02 04:53:06;;;;;;;11.10;7.03;;;11.40;99.90;;;;;;4956837;29;20239;-70
2022/05/02 04:55:33;;;;;;;11.83;7.13;;;11.40;99.90;;;;;;4956786;29;20742;-69
2022/05/02 04:58:00;;;;;;;9.17;7.23;;;11.40;99.90;;;;;;4956703;29;20201;-68
2022/05/02 05:00:28;;;;;;;13.23;9.00;;;11.50;99.90;;;;;;4956769;29;20231;-69
2022/05/02 05:02:56;;;;;;;15.47;7.40;;;11.50;99.90;;;;;;4956765;29;20667;-68
2022/05/02 05:05:22;;;;;;;8.80;7.07;;;11.60;99.90;;;;;;4956652;29;20718;-69
2022/05/02 05:07:49;;;;;;;13.23;6.87;;;11.60;99.90;;;;;;4957586;29;20260;-69
2022/05/02 05:10:16;;;;;;;10.83;7.30;;;11.70;99.90;;;;;;4956537;29;20241;-69
2022/05/02 05:12:58;;;;;;;9.43;6.77;;;11.80;99.90;;;;;;4956694;29;20719;-68
2022/05/02 05:18:35;;;;;;;10.23;7.33;;;12.00;99.90;;;;;;4957263;29;20189;-68
2022/05/02 05:21:06;;;;;;;10.07;6.57;;;12.10;99.90;;;;;;4973939;28;20314;-68
2022/05/02 05:23:56;;;;;;;10.23;6.73;;;12.10;99.60;;;;;;4976603;28;20197;-69
2022/05/02 05:26:30;;;;;;;9.80;6.83;;;12.30;99.40;;;;;;4976123;28;20233;-69
2022/05/02 05:29:05;;;;;;;7.60;6.00;;;12.40;98.70;;;;;;4976389;28;20192;-69
2022/05/02 05:31:36;;;;;;;8.87;5.67;;;12.50;97.90;;;;;;4976034;28;20223;-69
2022/05/02 05:34:08;;;;;;;10.60;6.63;;;12.50;96.90;;;;;;4975445;28;20232;-68
2022/05/02 05:36:58;;;;;;;8.27;5.57;;;12.50;96.30;;;;;;4976513;28;20633;-68
2022/05/02 05:39:33;;;;;;;8.03;5.03;;;12.60;95.60;;;;;;4975759;28;20546;-69
2022/05/02 05:42:11;;;;;;;9.07;4.90;;;12.60;94.60;;;;;;4975144;28;20290;-70
2022/05/02 05:44:53;;;;;;;7.33;5.33;;;12.70;93.90;;;;;;4976066;28;20616;-69
2022/05/02 05:47:43;;;;;;;10.60;5.83;;;12.70;93.20;;;;;;4975826;28;20216;-68
2022/05/02 05:50:21;;;;;;;9.03;5.90;;;12.80;92.70;;;;;;4962787;28;20237;-69
2022/05/02 05:53:01;;;;;;;7.93;5.67;;;12.90;92.30;;;;;;4958620;28;20190;-69
2022/05/02 05:55:38;;;;;;;7.53;5.40;;;12.90;92.00;;;;;;4960304;29;20710;-69
2022/05/02 05:58:15;;;;;;;9.27;6.53;;;13.00;91.90;;;;;;4962411;29;20192;-69
2022/05/02 06:00:45;;;;;;;8.57;5.70;;;13.00;91.70;;;;;;4960026;29;20307;-69
2022/05/02 06:03:15;;;;;;;7.87;6.07;;;13.10;91.80;;;;;;4959809;29;20284;-69
2022/05/02 06:05:44;;;;;;;9.90;6.70;;;13.20;91.20;;;;;;4959500;29;20212;-68
2022/05/02 06:08:11;;;;;;;11.23;5.40;;;13.30;90.90;;;;;;4960025;29;20233;-71
2022/05/02 06:10:41;;;;;;;9.40;5.77;;;13.40;90.80;;;;;;4959886;29;20338;-70
2022/05/02 06:13:09;;;;;;;6.23;5.23;;;13.50;90.60;;;;;;4959840;29;20629;-68
2022/05/02 06:18:29;;;;;;;9.77;4.83;;;13.60;89.50;;;;;;4959935;29;20560;-68
2022/05/02 06:20:59;;;;;;;8.57;5.07;;;13.70;89.40;;;;;;4962308;28;20312;-69
2022/05/02 06:23:28;;;;;;;9.43;5.63;;;13.80;87.50;;;;;;4960518;29;20205;-70
2022/05/02 06:25:57;;;;;;;6.50;4.53;;;13.80;87.60;;;;;;4960198;29;20216;-69
2022/05/02 06:28:28;;;;;;;12.43;6.63;;;13.90;86.10;;;;;;4959587;29;20208;-68
2022/05/02 06:30:59;;;;;;;8.17;4.97;;;13.90;85.30;;;;;;4959585;29;20217;-70
2022/05/02 06:33:28;;;;;;;7.73;5.20;;;14.00;85.00;;;;;;4959550;29;20718;-68
2022/05/02 06:36:32;;;;;;;6.37;4.30;;;14.10;84.10;;;;;;4959559;29;20296;-68
2022/05/02 06:39:03;;;;;;;6.60;4.23;;;14.30;83.20;;;;;;4959691;29;20240;-70
2022/05/02 06:41:55;;;;;;;6.37;4.93;;;14.40;82.30;;;;;;4959272;29;20765;-68
2022/05/02 06:44:43;;;;;;;7.70;4.90;;;14.50;81.60;;;;;;4959657;29;20206;-69
2022/05/02 06:47:20;;;;;;;7.73;4.27;;;14.60;81.50;;;;;;4959934;29;20225;-70
2022/05/02 06:49:52;;;;;;;7.97;4.90;;;14.60;81.10;;;;;;4971159;28;20192;-69
2022/05/02 06:52:24;;;;;;;7.17;4.90;;;14.60;80.70;;;;;;4978965;28;20205;-69
2022/05/02 06:55:03;;;;;;;6.40;5.00;;;14.80;80.40;;;;;;4979487;28;20643;-70
2022/05/02 06:57:51;;;;;;;5.27;4.73;;;14.90;79.90;;;;;;4979209;28;20189;-70
2022/05/02 07:00:20;;;;;;;9.57;5.10;;;14.90;79.20;;;;;;4979034;28;20272;-68
2022/05/02 07:03:18;;;;;;;5.57;4.77;;;15.00;79.30;;;;;;4978703;28;20572;-69
2022/05/02 07:06:01;;;;;;;6.83;4.73;;;15.10;79.00;;;;;;4978830;28;20669;-70
2022/05/02 07:08:29;;;;;;;8.33;4.53;;;15.20;78.90;;;;;;4978952;28;20221;-69
2022/05/02 07:11:01;;;;;;;7.77;4.70;;;15.30;78.30;;;;;;4979201;28;20247;-69
2022/05/02 07:13:41;;;;;;;6.37;4.50;;;15.50;78.30;;;;;;4978138;28;20244;-69
2022/05/02 07:16:21;;;;;;;5.33;4.30;;;15.70;78.10;;;;;;4978579;28;20562;-69
2022/05/02 07:19:09;;;;;;;5.90;4.40;;;15.90;77.00;;;;;;4975987;28;20651;-70
2022/05/02 07:21:47;;;;;;;7.07;4.27;;;16.00;76.00;;;;;;4977416;28;20227;-69
2022/05/02 07:24:26;;;;;;;7.30;4.10;;;16.20;75.40;;;;;;4977601;28;20192;-70
2022/05/02 07:27:01;;;;;;;7.43;4.47;;;16.50;74.60;;;;;;4973567;28;20263;-69
2022/05/02 07:29:30;;;;;;;8.20;5.07;;;16.60;73.60;;;;;;4977612;28;20630;-70
2022/05/02 07:31:59;;;;;;;7.50;5.03;;;16.80;72.80;;;;;;4977609;28;20667;-69
2022/05/02 07:34:30;;;;;;;6.00;4.23;;;17.00;72.60;;;;;;4977448;28;20204;-69
2022/05/02 07:36:59;;;;;;;6.47;4.70;;;17.10;71.80;;;;;;4978161;28;20275;-69
2022/05/02 07:39:29;;;;;;;8.82;4.70;;;17.30;71.50;;;;;;4977337;28;20205;-70
2022/05/02 07:42:01;;;;;;;9.15;4.78;;;17.50;70.90;;;;;;4977620;28;20697;-69
2022/05/02 07:44:33;;;;;;;8.13;4.30;;;17.60;70.10;;;;;;4978377;28;20204;-69
2022/05/02 07:47:03;;;;;;;6.25;4.38;;;17.70;69.60;;;;;;4978985;28;20248;-69
2022/05/02 07:49:33;;;;;;;5.82;4.13;;;17.90;69.00;;;;;;4971578;28;20228;-69
2022/05/02 07:52:02;;;;;;;5.13;3.90;;;18.10;68.50;;;;;;4958523;29;20260;-69
2022/05/02 07:54:31;;;;;;;9.10;4.18;;;18.30;67.70;;;;;;4958336;29;20209;-69
2022/05/02 07:56:59;;;;;;;5.45;4.07;;;18.50;66.60;;;;;;4959104;29;20289;-69
2022/05/02 07:59:31;;;;;;;5.57;4.10;;;18.80;65.60;;;;;;4958686;29;20292;-69
2022/05/02 08:01:58;;;;;;;6.40;4.40;;;18.90;64.40;;;;;;4959320;29;20218;-70
2022/05/02 08:04:26;;;;;;;6.22;3.95;;;19.00;63.10;;;;;;4961033;29;20212;-71
2022/05/02 08:07:11;;;;;;;7.22;4.30;;;19.00;62.60;;;;;;4960362;29;20256;-71
2022/05/02 08:10:04;;;;;;;6.15;4.43;;;19.10;62.00;;;;;;4959841;29;20208;-69
2022/05/02 08:12:39;;;;;;;6.03;4.85;;;19.30;61.70;;;;;;4959905;29;20294;-70
2022/05/02 08:15:12;;;;;;;4.28;3.67;;;19.40;61.00;;;;;;4960678;28;20610;-69
2022/05/02 08:17:57;;;;;;;6.00;4.53;;;19.60;60.90;;;;;;4959922;29;20189;-71
2022/05/02 08:20:33;;;;;;;10.57;4.45;;;19.70;60.60;;;;;;4977142;28;20275;-69
2022/05/02 08:29:01;;;;;;;7.25;4.47;;;20.20;59.40;;;;;;4976386;28;20351;-70
2022/05/02 08:31:42;;;;;;;5.10;4.30;;;20.30;58.50;;;;;;4977004;28;20296;-69
2022/05/02 08:34:20;;;;;;;7.32;4.70;;;20.40;58.00;;;;;;4976911;28;20534;-69
2022/05/02 08:36:56;;;;;;;6.90;4.20;;;20.50;58.00;;;;;;4977172;28;20232;-70
2022/05/02 08:39:32;;;;;;;6.65;4.30;;;20.70;57.70;;;;;;4976445;28;20193;-70
2022/05/02 08:42:31;;;;;;;7.07;4.53;;;20.80;56.80;;;;;;4976245;28;20717;-69
2022/05/02 08:45:21;;;;;;;6.50;4.38;;;20.70;55.90;;;;;;4976409;28;20247;-69
2022/05/02 08:48:25;;;;;;;7.70;4.57;;;20.60;55.70;;;;;;4976031;28;20255;-69
2022/05/02 08:51:39;;;;;;;7.07;4.10;;;20.70;55.70;;;;;;4957442;29;20581;-71
2022/05/02 08:54:44;;;;;;;8.73;4.15;;;20.80;55.40;;;;;;4898609;29;20236;-71
2022/05/02 08:57:50;;;;;;;5.90;4.05;;;21.10;55.60;;;;;;4898168;29;20199;-70
2022/05/02 09:00:28;;;;;;;7.55;4.03;;;21.40;55.10;;;;;;4955289;29;20219;-70
2022/05/02 09:03:39;;;;;;;5.43;4.13;;;21.50;54.00;;;;;;4957253;29;20589;-69
2022/05/02 09:06:39;;;;;;;6.18;5.05;;;21.40;53.20;;;;;;4879138;29;20212;-70
2022/05/02 09:09:48;;;;;;;7.10;3.88;;;21.50;53.40;;;;;;4955168;29;20225;-70
2022/05/02 09:12:55;;;;;;;6.28;4.40;;;21.70;52.90;;;;;;4929425;28;20208;-69
2022/05/02 09:16:07;;;;;;;5.25;3.83;;;21.90;51.90;;;;;;4975846;28;20660;-68
2022/05/02 09:19:13;;;;;;;6.65;3.78;;;21.90;50.80;;;;;;4947065;28;20201;-71
2022/05/02 09:22:16;;;;;;;5.05;3.38;;;21.90;49.70;;;;;;4975802;28;20666;-69
2022/05/02 09:25:04;;;;;;;6.70;4.40;;;22.00;49.30;;;;;;4967556;28;20211;-69
2022/05/02 09:27:55;;;;;;;6.50;3.58;;;22.10;49.10;;;;;;4957675;28;20315;-69
2022/05/02 09:30:51;;;;;;;5.65;3.63;;;22.20;49.20;;;;;;4960793;29;20204;-70
2022/05/02 09:33:37;;;;;;;5.68;3.65;;;22.40;48.70;;;;;;4961134;29;20181;-70
2022/05/02 09:36:15;;;;;;;4.65;3.95;;;22.50;48.70;;;;;;4960728;29;20236;-69
2022/05/02 09:38:50;;;;;;;6.63;4.25;;;22.60;48.00;;;;;;4960998;29;20653;-70
2022/05/02 09:41:36;;;;;;;5.78;3.90;;;22.70;48.00;;;;;;4960444;29;20244;-70
2022/05/02 09:50:17;;;;;;;6.28;3.88;;;23.20;47.10;;;;;;4960098;29;20200;-70
2022/05/02 09:53:18;;;;;;;7.50;3.67;;;23.50;46.50;;;;;;4959724;29;20220;-70
2022/05/02 09:58:49;;;;;;;4.45;3.25;;;23.80;45.50;;;;;;4977589;28;20228;-68
2022/05/02 10:01:23;;;;;;;5.60;3.75;;;24.10;45.30;;;;;;4979250;28;20247;-69
2022/05/02 10:04:19;;;;;;;7.07;3.13;;;24.30;44.30;;;;;;4979132;28;20620;-69
2022/05/02 10:06:50;;;;;;;5.20;3.10;;;24.40;44.10;;;;;;4978320;28;20224;-69
2022/05/02 10:10:06;;;;;;;5.90;3.17;;;24.60;43.90;;;;;;4978295;28;20236;-69
2022/05/02 10:12:46;;;;;;;5.38;3.53;;;24.70;43.80;;;;;;4932950;28;20209;-69
2022/05/02 10:15:41;;;;;;;4.18;3.60;;;24.90;43.20;;;;;;4959595;29;20228;-69
2022/05/02 10:18:36;;;;;;;4.55;3.25;;;25.10;43.10;;;;;;4960049;29;20200;-70
2022/05/02 10:21:08;;;;;;;6.20;4.63;;;25.20;42.40;;;;;;4959484;29;20774;-69
2022/05/02 10:23:52;;;;;;;4.40;3.35;;;25.20;42.40;;;;;;4959856;29;20200;-70
2022/05/02 10:26:37;;;;;;;5.40;3.33;;;25.10;43.20;;;;;;4959931;29;20280;-69
2022/05/02 10:29:25;;;;;;;4.25;3.22;;;25.10;43.10;;;;;;4959375;29;20308;-71
2022/05/02 10:32:05;;;;;;;5.03;3.13;;;25.10;42.50;;;;;;4960065;28;20189;-70
2022/05/02 10:34:33;;;;;;;5.50;3.97;;;25.10;42.20;;;;;;4959468;29;20276;-70
2022/05/02 10:37:04;;;;;;;5.47;4.00;;;25.10;42.30;;;;;;4958918;29;20209;-69
2022/05/02 10:39:40;;;;;;;5.63;3.55;;;25.00;42.50;;;;;;4958736;28;20228;-69
2022/05/02 10:42:10;;;;;;;4.82;3.45;;;24.90;42.60;;;;;;4958397;29;20315;-68
2022/05/02 10:44:49;;;;;;;5.80;3.67;;;24.90;42.80;;;;;;4959002;29;20233;-70
2022/05/02 10:47:21;;;;;;;4.90;4.10;;;24.90;42.40;;;;;;4959318;29;20207;-70
2022/05/02 10:50:08;;;;;;;11.38;4.15;;;24.80;42.40;;;;;;4959065;29;20204;-69
2022/05/02 10:53:09;;;;;;;6.80;3.40;;;24.70;43.30;;;;;;4958845;29;20262;-70
2022/05/02 10:55:40;;;;;;;5.53;3.42;;;24.90;44.10;;;;;;4959049;29;20189;-69
2022/05/02 10:58:12;;;;;;;5.28;3.20;;;25.20;43.80;;;;;;4958937;29;20553;-69
2022/05/02 11:01:00;;;;;;;6.40;3.70;;;25.40;43.40;;;;;;4959210;29;20194;-69
2022/05/02 11:03:39;;;;;;;4.68;3.13;;;25.40;43.60;;;;;;4959272;28;20236;-68
2022/05/02 11:06:31;;;;;;;4.95;3.10;;;25.40;44.10;;;;;;4959041;29;20237;-69
2022/05/02 11:09:03;;;;;;;3.50;3.00;;;25.40;43.60;;;;;;4958597;29;20221;-73
2022/05/02 11:11:41;;;;;;;5.95;3.20;;;25.50;43.60;;;;;;4958394;29;20268;-69
2022/05/02 11:14:23;;;;;;;5.68;3.42;;;25.60;43.60;;;;;;4959308;29;20682;-70
2022/05/02 11:16:56;;;;;;;7.28;3.55;;;25.40;43.50;;;;;;4959223;29;20185;-70
2022/05/02 11:22:27;;;;;;;4.95;2.67;;;25.00;43.90;;;;;;4958338;29;20240;-70
2022/05/02 11:25:06;;;;;;;5.22;3.30;;;24.70;43.90;;;;;;4958887;29;20189;-69
2022/05/02 11:27:47;;;;;;;5.80;2.70;;;24.60;44.00;;;;;;4958467;29;20245;-69
2022/05/02 11:30:17;;;;;;;4.63;3.05;;;24.50;44.10;;;;;;4958268;29;20249;-69
2022/05/02 11:33:06;;;;;;;5.40;3.50;;;24.30;44.10;;;;;;4961901;28;20265;-70
2022/05/02 11:35:35;;;;;;;5.75;3.08;;;24.20;44.30;;;;;;4976385;28;20566;-69
2022/05/02 11:38:22;;;;;;;3.58;2.97;;;24.00;44.60;;;;;;4960113;28;20204;-69
2022/05/02 11:40:54;;;;;;;4.25;3.00;;;23.60;44.80;;;;;;4974917;28;20247;-69
2022/05/02 11:43:23;;;;;;;6.07;3.17;;;23.30;45.40;;;;;;4977454;28;20232;-69
2022/05/02 11:45:57;;;;;;;7.30;3.08;;;23.20;46.10;;;;;;4977165;28;20237;-70
2022/05/02 11:48:45;;;;;;;3.58;2.85;;;22.90;46.50;;;;;;4977595;28;20212;-70
2022/05/02 11:51:29;;;;;;;4.57;3.03;;;22.70;46.90;;;;;;4976431;28;20224;-69
2022/05/02 11:53:58;;;;;;;4.75;2.80;;;22.60;47.50;;;;;;4976848;28;20209;-69
2022/05/02 11:56:34;;;;;;;8.55;3.33;;;22.70;47.90;;;;;;4977864;28;20287;-70
2022/05/02 11:59:05;;;;;;;6.43;3.28;;;22.80;47.80;;;;;;4976895;28;20196;-69
2022/05/02 12:01:37;;;;;;;6.22;3.08;;;23.00;47.70;;;;;;4976494;28;20592;-69
2022/05/02 12:04:05;;;;;;;4.10;3.10;;;23.10;47.10;;;;;;4976678;28;20192;-70
2022/05/02 12:06:43;;;;;;;5.15;2.78;;;23.30;46.40;;;;;;4976695;28;20289;-68
2022/05/02 12:09:21;;;;;;;5.57;3.47;;;23.60;46.60;;;;;;4976765;28;20304;-69
2022/05/02 12:11:53;;;;;;;5.68;2.60;;;23.90;46.30;;;;;;4976769;28;20232;-69
2022/05/02 12:14:22;;;;;;;4.97;3.13;;;24.20;45.80;;;;;;4976937;28;20208;-69
2022/05/02 12:17:06;;;;;;;3.55;3.10;;;24.40;45.00;;;;;;4976866;28;20244;-69
2022/05/02 12:19:34;;;;;;;5.03;3.30;;;24.50;44.80;;;;;;4976548;28;20233;-70
2022/05/02 12:22:05;;;;;;;7.30;3.20;;;24.60;44.30;;;;;;4976326;28;20224;-69
2022/05/02 12:24:35;;;;;;;4.95;2.83;;;24.70;44.30;;;;;;4977170;28;20204;-68
2022/05/02 12:27:07;;;;;;;4.95;2.95;;;24.70;44.20;;;;;;4976980;28;20208;-69
2022/05/02 12:29:36;;;;;;;4.25;2.50;;;24.60;44.10;;;;;;4976207;28;20240;-68
2022/05/02 12:32:05;;;;;;;3.20;2.78;;;24.70;43.90;;;;;;4975911;28;20209;-70
2022/05/02 12:34:37;;;;;;;3.92;2.53;;;24.60;43.40;;;;;;4975934;28;20239;-70
2022/05/02 12:37:10;;;;;;;4.80;2.92;;;24.50;43.20;;;;;;4976543;28;20204;-69
2022/05/02 12:39:58;;;;;;;4.03;2.65;;;24.30;43.30;;;;;;4976117;28;20207;-69
2022/05/02 12:42:35;;;;;;;4.05;3.00;;;24.30;43.60;;;;;;4976060;28;20237;-70
2022/05/02 12:45:07;;;;;;;3.08;2.67;;;24.40;43.30;;;;;;4975974;28;20200;-69
2022/05/02 12:47:41;;;;;;;3.40;2.50;;;24.40;43.20;;;;;;4976343;28;20548;-69
2022/05/02 12:50:16;;;;;;;4.82;2.80;;;24.40;43.20;;;;;;4976392;28;20220;-69
2022/05/02 12:52:46;;;;;;;3.75;2.45;;;24.40;43.10;;;;;;4975326;28;20200;-69
2022/05/02 12:55:13;;;;;;;3.80;2.80;;;24.40;43.10;;;;;;4976195;28;20246;-70
2022/05/02 13:00:35;;;;;;;3.72;2.67;;;24.40;43.50;;;;;;4976775;28;20216;-69
2022/05/02 13:03:16;;;;;;;3.38;2.50;;;24.50;43.00;;;;;;4975539;28;20192;-69
2022/05/02 13:05:51;;;;;;;4.38;2.88;;;24.60;42.70;;;;;;4976265;28;20194;-70
2022/05/02 13:08:21;;;;;;;3.25;2.40;;;24.70;42.60;;;;;;4975538;28;20263;-69
2022/05/02 13:10:52;;;;;;;3.58;2.85;;;24.90;42.60;;;;;;4976300;28;20251;-69
2022/05/02 13:13:19;;;;;;;6.28;2.90;;;24.80;42.30;;;;;;4975877;28;20228;-69
2022/05/02 13:15:48;;;;;;;6.80;2.53;;;24.60;42.20;;;;;;4975941;28;20240;-69
2022/05/02 13:18:19;;;;;;;4.65;2.67;;;24.40;41.80;;;;;;4975705;28;20215;-69
2022/05/02 13:20:58;;;;;;;3.75;3.35;;;24.20;42.00;;;;;;4975982;28;20550;-69
2022/05/02 13:23:36;;;;;;;5.43;2.60;;;23.90;42.10;;;;;;4975556;28;20207;-69
2022/05/02 13:26:13;;;;;;;4.70;3.08;;;23.70;42.50;;;;;;4975820;28;20290;-69
2022/05/02 13:28:56;;;;;;;5.72;2.85;;;23.50;42.80;;;;;;4961299;28;20230;-69
2022/05/02 13:31:31;;;;;;;3.65;3.35;;;23.30;43.10;;;;;;4976958;28;20566;-69
2022/05/02 13:34:03;;;;;;;6.30;2.72;;;23.10;43.10;;;;;;4976147;28;20232;-70
2022/05/02 13:36:40;;;;;;;5.10;3.13;;;22.90;43.20;;;;;;4976023;28;20205;-69
2022/05/02 13:39:13;;;;;;;5.00;2.85;;;22.80;43.10;;;;;;4968646;28;20565;-69
2022/05/02 13:41:48;;;;;;;3.65;2.70;;;22.70;43.30;;;;;;4956483;29;20260;-70
2022/05/02 13:44:23;;;;;;;4.32;2.63;;;22.60;43.50;;;;;;4956313;29;20284;-69
2022/05/02 13:46:54;;;;;;;3.33;2.75;;;22.40;43.80;;;;;;4957025;29;20240;-70
2022/05/02 13:49:36;;;;;;;4.63;2.35;;;22.30;44.30;;;;;;4956721;29;20216;-69
2022/05/02 13:52:14;;;;;;;5.28;2.78;;;22.20;44.70;;;;;;4956603;29;20201;-70